Time;durP1;ratioP1;P1;durP2;ratioP2;P2;SDS_P1;SDS_P2;PMS_P1;PMS_P2;Temp;Humidity;BMP_temperature;BMP_pressure;BME280_temperature;BME280_humidity;BME280_pressure;Samples;Min_cycle;Max_cycle;Signal;HPM_P1;HPM_P2
2022/08/06 00:00:11;;;;;;;31.73;24.70;;;25.00;63.10;;;;;;5029293;28;20030;-73
2022/08/06 00:02:37;;;;;;;32.97;25.50;;;25.00;63.10;;;;;;5028635;28;20025;-73
2022/08/06 00:05:03;;;;;;;31.77;25.23;;;25.00;63.20;;;;;;5029394;28;20550;-73
2022/08/06 00:07:29;;;;;;;33.83;25.17;;;25.00;63.00;;;;;;5029461;28;20028;-73
2022/08/06 00:09:56;;;;;;;30.90;24.88;;;25.00;63.10;;;;;;5028694;28;20022;-73
2022/08/06 00:12:21;;;;;;;30.80;25.27;;;25.00;63.10;;;;;;5028135;28;20021;-73
2022/08/06 00:14:47;;;;;;;30.98;24.85;;;25.00;64.00;;;;;;5061107;28;20506;-73
2022/08/06 00:17:12;;;;;;;29.23;23.65;;;24.90;63.00;;;;;;5029080;28;20084;-73
2022/08/06 00:19:38;;;;;;;30.45;24.60;;;25.00;63.00;;;;;;5027992;28;20443;-73
2022/08/06 00:22:04;;;;;;;30.20;24.05;;;24.90;64.00;;;;;;5029327;28;20018;-73
2022/08/06 00:24:29;;;;;;;27.48;22.98;;;24.90;62.90;;;;;;5029272;28;20529;-73
2022/08/06 00:26:55;;;;;;;29.75;23.65;;;24.90;62.90;;;;;;5029093;28;20025;-73
2022/08/06 00:29:20;;;;;;;29.80;24.45;;;24.90;62.90;;;;;;5028684;28;20428;-73
2022/08/06 00:31:46;;;;;;;29.02;23.38;;;24.90;63.00;;;;;;5029259;28;20496;-73
2022/08/06 00:34:12;;;;;;;29.48;23.90;;;24.90;62.90;;;;;;5029070;28;20636;-73
2022/08/06 00:36:37;;;;;;;28.08;23.20;;;24.90;62.90;;;;;;5029095;28;20026;-73
2022/08/06 00:39:05;;;;;;;27.90;23.00;;;24.90;63.00;;;;;;5028890;28;20033;-73
2022/08/06 00:41:31;;;;;;;29.38;23.38;;;24.90;62.90;;;;;;5029176;28;20503;-73
2022/08/06 00:43:57;;;;;;;29.15;23.83;;;24.90;62.90;;;;;;5027509;28;20080;-73
2022/08/06 00:46:23;;;;;;;29.90;23.95;;;24.90;63.00;;;;;;5028986;28;20564;-73
2022/08/06 00:48:49;;;;;;;26.85;22.25;;;24.90;62.90;;;;;;5060496;28;20064;-73
2022/08/06 00:51:15;;;;;;;30.98;23.60;;;24.90;62.90;;;;;;5044082;28;20032;-73
2022/08/06 00:53:40;;;;;;;25.38;22.67;;;24.90;62.90;;;;;;5029888;28;20385;-73
2022/08/06 00:56:06;;;;;;;26.60;22.10;;;24.90;63.00;;;;;;5060541;28;20031;-73
2022/08/06 00:58:32;;;;;;;27.42;22.33;;;24.90;62.90;;;;;;5028978;28;20092;-73
2022/08/06 01:00:57;;;;;;;31.35;22.27;;;24.90;63.00;;;;;;5027701;28;20049;-73
2022/08/06 01:03:23;;;;;;;25.92;21.73;;;24.90;63.10;;;;;;5060694;28;20136;-73
2022/08/06 01:05:49;;;;;;;26.98;22.45;;;24.90;63.00;;;;;;5028180;28;20022;-73
2022/08/06 01:08:14;;;;;;;26.25;21.88;;;24.90;63.00;;;;;;5027575;28;20056;-73
2022/08/06 01:10:40;;;;;;;27.90;21.58;;;24.90;63.00;;;;;;5028452;28;20028;-73
2022/08/06 01:13:06;;;;;;;25.20;21.48;;;24.80;63.00;;;;;;5030635;28;20170;-73
2022/08/06 01:15:32;;;;;;;25.10;20.95;;;24.80;62.90;;;;;;5032356;28;20024;-73
2022/08/06 01:18:07;;;;;;;24.65;20.45;;;24.80;63.00;;;;;;5031027;28;20112;-73
2022/08/06 01:20:36;;;;;;;29.30;21.63;;;24.80;63.10;;;;;;5030607;28;20483;-73
2022/08/06 01:23:17;;;;;;;26.83;21.42;;;24.80;63.10;;;;;;5031603;28;20029;-73
2022/08/06 01:26:11;;;;;;;27.70;21.17;;;24.80;63.20;;;;;;5030615;28;20032;-73
2022/08/06 01:28:52;;;;;;;26.17;21.27;;;24.80;63.10;;;;;;5030265;28;20037;-73
2022/08/06 01:31:21;;;;;;;27.15;20.95;;;24.80;63.10;;;;;;5031183;28;20035;-73
2022/08/06 01:34:10;;;;;;;28.98;20.85;;;24.80;63.40;;;;;;5030792;28;20024;-73
2022/08/06 01:36:48;;;;;;;26.58;20.33;;;24.80;63.30;;;;;;5031642;28;20022;-73
2022/08/06 01:39:14;;;;;;;25.40;20.23;;;24.80;63.20;;;;;;5030572;28;20100;-73
2022/08/06 01:41:45;;;;;;;26.08;20.52;;;24.80;63.30;;;;;;5063452;28;20092;-73
2022/08/06 01:44:13;;;;;;;23.17;19.55;;;24.80;63.30;;;;;;5063833;28;20029;-73
2022/08/06 01:46:44;;;;;;;28.45;20.75;;;24.80;63.40;;;;;;5063501;28;20028;-73
2022/08/06 01:49:10;;;;;;;23.55;20.15;;;24.80;63.30;;;;;;5031559;28;20488;-73
2022/08/06 01:51:36;;;;;;;23.33;20.40;;;24.80;63.30;;;;;;5047223;28;20021;-73
2022/08/06 01:54:02;;;;;;;22.38;19.52;;;24.80;63.20;;;;;;5030687;28;20029;-73
2022/08/06 01:56:28;;;;;;;23.65;19.40;;;24.80;63.30;;;;;;5062791;28;20022;-73
2022/08/06 01:58:54;;;;;;;24.50;20.10;;;24.80;63.40;;;;;;5063121;28;20089;-73
2022/08/06 02:01:20;;;;;;;28.13;20.05;;;24.80;63.40;;;;;;5046531;28;20148;-73
2022/08/06 02:03:47;;;;;;;22.80;19.40;;;24.80;63.40;;;;;;5046682;28;20096;-73
2022/08/06 02:06:15;;;;;;;23.50;19.67;;;24.80;63.60;;;;;;5063712;28;20028;-73
2022/08/06 02:08:40;;;;;;;23.50;18.55;;;24.80;63.50;;;;;;5046467;28;20032;-73
2022/08/06 02:11:07;;;;;;;23.00;18.73;;;24.80;63.50;;;;;;5029296;28;20013;-73
2022/08/06 02:13:33;;;;;;;22.52;19.23;;;24.80;63.50;;;;;;5046257;28;20021;-73
2022/08/06 02:15:59;;;;;;;22.75;18.95;;;24.80;63.50;;;;;;5030619;28;20048;-73
2022/08/06 02:18:25;;;;;;;20.27;17.65;;;24.80;63.50;;;;;;5062866;28;20045;-73
2022/08/06 02:20:52;;;;;;;21.80;18.83;;;24.80;63.50;;;;;;5030074;28;20391;-73
2022/08/06 02:23:19;;;;;;;23.33;18.58;;;24.80;63.50;;;;;;5046060;28;20024;-73
2022/08/06 02:25:46;;;;;;;22.35;18.33;;;24.80;63.50;;;;;;5061693;28;20025;-73
2022/08/06 02:28:12;;;;;;;23.33;19.15;;;24.70;63.40;;;;;;5061994;28;20049;-73
2022/08/06 02:30:42;;;;;;;20.88;17.85;;;24.80;63.50;;;;;;5029725;28;20444;-73
2022/08/06 02:33:07;;;;;;;21.98;18.23;;;24.70;63.40;;;;;;5034256;28;20104;-73
2022/08/06 02:35:45;;;;;;;23.88;18.75;;;24.70;63.50;;;;;;5062698;28;20112;-73
2022/08/06 02:38:22;;;;;;;21.00;18.15;;;24.70;63.50;;;;;;5030693;28;20029;-73
2022/08/06 02:40:53;;;;;;;22.63;17.60;;;24.70;63.50;;;;;;5033092;28;20046;-73
2022/08/06 02:43:22;;;;;;;20.02;17.45;;;24.70;63.50;;;;;;5045134;28;20105;-73
2022/08/06 02:46:13;;;;;;;21.48;17.50;;;24.70;63.60;;;;;;5044994;28;20022;-73
2022/08/06 02:48:50;;;;;;;20.45;17.80;;;24.70;63.50;;;;;;5032265;28;20018;-73
2022/08/06 02:51:32;;;;;;;21.50;18.08;;;24.70;63.50;;;;;;5031709;28;20021;-73
2022/08/06 02:54:28;;;;;;;22.95;18.35;;;24.70;63.50;;;;;;5028436;28;20014;-73
2022/08/06 02:56:58;;;;;;;25.13;17.40;;;24.70;63.50;;;;;;5021960;28;20087;-73
2022/08/06 02:59:26;;;;;;;20.98;17.42;;;24.70;63.60;;;;;;5044794;28;20021;-73
2022/08/06 03:01:54;;;;;;;21.95;17.77;;;24.70;63.50;;;;;;5045336;28;20010;-73
2022/08/06 03:04:21;;;;;;;20.60;17.13;;;24.70;63.50;;;;;;5045132;28;20013;-73
2022/08/06 03:06:47;;;;;;;24.88;17.33;;;24.70;64.50;;;;;;5061925;28;20463;-73
2022/08/06 03:09:13;;;;;;;21.58;16.92;;;24.70;63.50;;;;;;5030136;28;20123;-73
2022/08/06 03:11:40;;;;;;;19.58;16.52;;;24.60;63.40;;;;;;5045279;28;20033;-73
2022/08/06 03:14:06;;;;;;;20.33;17.05;;;24.70;63.50;;;;;;5062101;28;20029;-73
2022/08/06 03:16:34;;;;;;;21.65;16.75;;;24.70;63.60;;;;;;5061615;28;20476;-73
2022/08/06 03:19:00;;;;;;;20.40;17.58;;;24.70;63.50;;;;;;5028125;28;20086;-73
2022/08/06 03:21:26;;;;;;;19.58;16.30;;;24.60;63.50;;;;;;5028762;28;20479;-73
2022/08/06 03:23:51;;;;;;;17.95;16.05;;;24.60;63.50;;;;;;5061672;28;20014;-73
2022/08/06 03:26:17;;;;;;;18.25;15.82;;;24.60;63.50;;;;;;5045096;28;20083;-73
2022/08/06 03:28:43;;;;;;;18.73;16.35;;;24.60;63.60;;;;;;5027305;28;20069;-73
2022/08/06 03:31:09;;;;;;;17.85;15.43;;;24.60;63.50;;;;;;5061572;28;20515;-73
2022/08/06 03:33:34;;;;;;;18.50;15.55;;;24.60;63.60;;;;;;5061518;28;20025;-73
2022/08/06 03:36:01;;;;;;;21.90;16.60;;;24.60;63.70;;;;;;5044060;28;20125;-73
2022/08/06 03:38:27;;;;;;;19.52;16.20;;;24.60;63.80;;;;;;5028201;28;20024;-73
2022/08/06 03:40:52;;;;;;;20.52;16.15;;;24.60;63.80;;;;;;5044968;28;20021;-73
2022/08/06 03:43:18;;;;;;;19.33;16.05;;;24.60;64.00;;;;;;5044657;28;20029;-73
2022/08/06 03:45:52;;;;;;;18.38;15.45;;;24.60;64.10;;;;;;5011096;28;20108;-73
2022/08/06 03:48:24;;;;;;;20.35;15.00;;;24.60;64.10;;;;;;5042998;28;20024;-73
2022/08/06 03:50:50;;;;;;;18.45;15.52;;;24.60;64.10;;;;;;5011851;28;20033;-73
2022/08/06 03:53:24;;;;;;;19.30;14.93;;;24.60;64.10;;;;;;5027785;28;20429;-73
2022/08/06 03:55:50;;;;;;;17.10;14.40;;;24.60;64.10;;;;;;5044611;28;20018;-73
2022/08/06 03:58:16;;;;;;;18.13;15.23;;;24.60;64.10;;;;;;5027213;28;20021;-73
2022/08/06 04:00:51;;;;;;;17.88;14.88;;;24.60;64.10;;;;;;5044618;28;20109;-73
2022/08/06 04:03:17;;;;;;;20.15;14.85;;;24.60;64.10;;;;;;5061243;28;20022;-73
2022/08/06 04:05:42;;;;;;;18.80;13.88;;;24.60;64.20;;;;;;5044363;28;20032;-73
2022/08/06 04:08:08;;;;;;;20.75;14.55;;;24.60;64.10;;;;;;5029251;28;20033;-73
2022/08/06 04:10:38;;;;;;;17.52;14.80;;;24.50;64.00;;;;;;5044528;28;20514;-73
2022/08/06 04:13:06;;;;;;;18.15;14.75;;;24.60;64.10;;;;;;5030385;28;20029;-73
2022/08/06 04:15:31;;;;;;;16.60;14.50;;;24.60;64.20;;;;;;5060466;28;20499;-73
2022/08/06 04:17:57;;;;;;;17.08;14.52;;;24.60;64.10;;;;;;5029297;28;20029;-73
2022/08/06 04:20:25;;;;;;;18.25;13.75;;;24.60;64.20;;;;;;5044344;28;20029;-73
2022/08/06 04:22:51;;;;;;;17.92;14.13;;;24.50;64.10;;;;;;5027739;28;20152;-73
2022/08/06 04:25:17;;;;;;;17.45;13.82;;;24.50;64.20;;;;;;5044330;28;20096;-73
2022/08/06 04:27:43;;;;;;;17.15;13.50;;;24.50;64.20;;;;;;5044208;28;20022;-73
2022/08/06 04:30:09;;;;;;;16.85;14.25;;;24.50;64.20;;;;;;5044273;28;20049;-73
2022/08/06 04:32:35;;;;;;;16.08;13.80;;;24.50;64.20;;;;;;5027936;28;20034;-73
2022/08/06 04:35:02;;;;;;;16.63;13.70;;;24.50;64.20;;;;;;5044176;28;20033;-73
2022/08/06 04:37:28;;;;;;;17.63;13.68;;;24.50;64.20;;;;;;5028735;28;20499;-73
2022/08/06 04:39:54;;;;;;;18.35;14.60;;;24.50;64.20;;;;;;5060974;28;20045;-73
2022/08/06 04:42:19;;;;;;;16.23;13.27;;;24.50;64.20;;;;;;5027736;28;20104;-73
2022/08/06 04:44:45;;;;;;;19.00;14.10;;;24.50;64.30;;;;;;5060810;28;20021;-73
2022/08/06 04:47:11;;;;;;;17.27;13.32;;;24.50;64.30;;;;;;5061196;28;20431;-73
2022/08/06 04:49:36;;;;;;;16.92;13.25;;;24.50;64.30;;;;;;5032364;28;20505;-73
2022/08/06 04:52:02;;;;;;;18.20;13.55;;;24.50;64.30;;;;;;5032179;28;20067;-73
2022/08/06 04:54:28;;;;;;;15.05;13.43;;;24.50;64.30;;;;;;5064584;28;20467;-73
2022/08/06 04:56:53;;;;;;;13.82;12.05;;;24.50;64.60;;;;;;5031001;28;20148;-73
2022/08/06 04:59:19;;;;;;;16.30;13.20;;;24.40;64.20;;;;;;5032617;28;20020;-73
2022/08/06 05:01:44;;;;;;;13.50;12.10;;;24.40;64.20;;;;;;5064539;28;20029;-73
2022/08/06 05:04:10;;;;;;;18.77;13.35;;;24.40;64.20;;;;;;5064318;28;20025;-73
2022/08/06 05:06:38;;;;;;;14.70;12.75;;;24.40;64.30;;;;;;5032301;28;20021;-73
2022/08/06 05:09:08;;;;;;;14.38;12.40;;;24.40;64.40;;;;;;5032558;28;20029;-72
2022/08/06 05:11:40;;;;;;;15.20;12.13;;;24.40;64.20;;;;;;5062893;28;20024;-72
2022/08/06 05:14:15;;;;;;;16.17;12.82;;;24.40;64.40;;;;;;5041062;28;20047;-73
2022/08/06 05:16:43;;;;;;;14.90;12.00;;;24.40;64.40;;;;;;5031952;28;20026;-73
2022/08/06 05:19:11;;;;;;;15.80;12.35;;;24.40;64.50;;;;;;5030852;28;20076;-73
2022/08/06 05:21:38;;;;;;;15.43;12.55;;;24.40;64.60;;;;;;5031369;28;21293;-73
2022/08/06 05:24:04;;;;;;;13.70;11.77;;;24.40;64.50;;;;;;5032456;28;20017;-73
2022/08/06 05:26:30;;;;;;;14.68;12.02;;;24.40;64.50;;;;;;5063973;28;20033;-73
2022/08/06 05:28:55;;;;;;;14.20;12.27;;;24.40;64.50;;;;;;5017660;28;20052;-73
2022/08/06 05:31:31;;;;;;;12.93;11.60;;;24.40;64.50;;;;;;5035030;28;20446;-72
2022/08/06 05:33:57;;;;;;;13.35;11.93;;;24.40;64.60;;;;;;5034967;28;20079;-72
2022/08/06 05:36:23;;;;;;;16.25;12.32;;;24.40;64.60;;;;;;5033110;28;20056;-72
2022/08/06 05:38:48;;;;;;;14.25;11.57;;;24.40;64.60;;;;;;5063580;28;20422;-72
2022/08/06 05:41:14;;;;;;;13.48;11.52;;;24.40;64.60;;;;;;5032596;28;20014;-72
2022/08/06 05:43:40;;;;;;;14.15;11.73;;;24.40;64.70;;;;;;5032592;28;20033;-72
2022/08/06 05:46:10;;;;;;;13.27;11.70;;;24.40;64.60;;;;;;5031240;28;20041;-72
2022/08/06 05:48:54;;;;;;;12.63;11.30;;;24.40;64.70;;;;;;5047686;28;20027;-73
2022/08/06 05:51:29;;;;;;;12.95;11.48;;;24.40;64.60;;;;;;5046664;28;20029;-72
2022/08/06 05:54:00;;;;;;;13.85;11.30;;;24.30;64.60;;;;;;5034640;28;20033;-73
2022/08/06 05:56:31;;;;;;;14.90;12.18;;;24.40;64.70;;;;;;5034576;28;20029;-72
2022/08/06 05:59:04;;;;;;;15.02;12.15;;;24.30;64.60;;;;;;5040386;28;20613;-72
2022/08/06 06:01:30;;;;;;;12.57;10.93;;;24.30;64.60;;;;;;5031125;28;20041;-72
2022/08/06 06:03:56;;;;;;;14.30;11.07;;;24.30;64.60;;;;;;5035285;28;20026;-72
2022/08/06 06:06:22;;;;;;;12.63;11.32;;;24.40;64.60;;;;;;5018948;28;20028;-72
2022/08/06 06:08:48;;;;;;;12.10;10.40;;;24.30;64.50;;;;;;5034756;28;20036;-72
2022/08/06 06:11:14;;;;;;;13.27;11.20;;;24.30;64.60;;;;;;5036709;28;20128;-73
2022/08/06 06:13:41;;;;;;;14.82;10.70;;;24.30;64.60;;;;;;5036787;28;20104;-73
2022/08/06 06:16:07;;;;;;;12.20;10.95;;;24.30;64.60;;;;;;5017778;28;20476;-73
2022/08/06 06:18:58;;;;;;;12.82;11.45;;;24.30;64.70;;;;;;5032370;28;20410;-73
2022/08/06 06:21:48;;;;;;;12.57;10.60;;;24.30;64.60;;;;;;5031237;28;20162;-73
2022/08/06 06:24:29;;;;;;;12.82;10.32;;;24.30;64.70;;;;;;5031883;28;20021;-73
2022/08/06 06:27:00;;;;;;;13.52;11.00;;;24.30;64.80;;;;;;5030278;28;20022;-72
2022/08/06 06:29:37;;;;;;;11.73;10.27;;;24.30;64.70;;;;;;5031915;28;20046;-72
2022/08/06 06:32:14;;;;;;;12.07;10.68;;;24.30;64.90;;;;;;5034164;28;20892;-73
2022/08/06 06:34:44;;;;;;;11.77;10.10;;;24.30;65.00;;;;;;5031949;28;20063;-73
2022/08/06 06:37:44;;;;;;;11.98;10.68;;;24.30;65.00;;;;;;5061632;28;20022;-73
2022/08/06 06:40:16;;;;;;;13.43;10.52;;;24.30;65.20;;;;;;4979153;28;20026;-73
2022/08/06 06:42:51;;;;;;;11.52;10.32;;;24.30;66.60;;;;;;4988964;28;20463;-73
2022/08/06 06:45:28;;;;;;;14.88;10.30;;;24.30;65.50;;;;;;4959772;28;20030;-73
2022/08/06 06:48:12;;;;;;;12.50;9.65;;;24.30;65.60;;;;;;4973994;28;20464;-73
2022/08/06 06:50:42;;;;;;;11.65;10.20;;;24.30;65.60;;;;;;4960114;28;20038;-73
2022/08/06 06:53:09;;;;;;;14.00;10.10;;;24.30;65.70;;;;;;4991075;28;20062;-73
2022/08/06 06:55:37;;;;;;;11.60;9.85;;;24.30;65.50;;;;;;4957370;28;20032;-73
2022/08/06 06:58:24;;;;;;;11.32;10.07;;;24.30;65.60;;;;;;4957336;28;20500;-73
2022/08/06 07:00:51;;;;;;;12.93;9.85;;;24.30;65.50;;;;;;4976342;28;20029;-73
2022/08/06 07:03:17;;;;;;;11.23;9.90;;;24.30;65.60;;;;;;4972608;28;20042;-73
2022/08/06 07:05:44;;;;;;;11.68;10.20;;;24.30;65.60;;;;;;4988225;28;20026;-73
2022/08/06 07:08:10;;;;;;;11.38;9.20;;;24.30;65.60;;;;;;5004865;28;20026;-74
2022/08/06 07:10:35;;;;;;;5.07;4.13;;;24.30;64.60;;;;;;4956232;28;20038;-73
2022/08/06 07:13:01;;;;;;;4.60;4.10;;;24.30;61.90;;;;;;4956206;28;20026;-73
2022/08/06 07:15:27;;;;;;;4.63;4.22;;;24.20;61.40;;;;;;5023836;28;20080;-73
2022/08/06 07:17:52;;;;;;;4.75;4.22;;;24.20;61.20;;;;;;5028538;28;20021;-73
2022/08/06 07:20:24;;;;;;;8.93;4.57;;;24.20;61.60;;;;;;5030099;28;20029;-73
2022/08/06 07:22:50;;;;;;;5.37;4.33;;;24.20;61.50;;;;;;5059701;28;20502;-73
2022/08/06 07:25:15;;;;;;;6.78;4.85;;;24.10;61.50;;;;;;5028775;28;20014;-73
2022/08/06 07:27:44;;;;;;;4.30;3.90;;;24.10;61.60;;;;;;5029591;28;20025;-73
2022/08/06 07:30:11;;;;;;;4.82;4.32;;;24.20;61.70;;;;;;5027920;28;20041;-73
2022/08/06 07:32:37;;;;;;;4.72;4.10;;;24.20;61.70;;;;;;5031208;28;20025;-73
2022/08/06 07:35:07;;;;;;;6.55;3.60;;;24.10;61.40;;;;;;5032086;28;20071;-73
2022/08/06 07:37:33;;;;;;;5.43;2.92;;;24.10;59.40;;;;;;5044039;28;20107;-75
2022/08/06 07:39:59;;;;;;;15.32;2.13;;;24.00;58.50;;;;;;5044982;28;20164;-74
2022/08/06 07:42:25;;;;;;;6.10;2.13;;;23.90;57.00;;;;;;5028877;28;20025;-74
2022/08/06 07:44:52;;;;;;;6.53;2.17;;;23.80;58.30;;;;;;5027874;28;20033;-75
2022/08/06 07:47:22;;;;;;;7.30;1.98;;;23.70;57.40;;;;;;5044008;28;20391;-79
2022/08/06 07:49:55;;;;;;;7.18;2.63;;;23.70;57.80;;;;;;5029434;28;20431;-78
2022/08/06 07:52:21;;;;;;;5.90;1.90;;;23.80;57.60;;;;;;5044662;28;20021;-78
2022/08/06 07:54:47;;;;;;;8.82;2.00;;;23.90;57.10;;;;;;5047774;28;20032;-78
2022/08/06 07:57:13;;;;;;;8.82;1.92;;;24.00;56.90;;;;;;5042624;28;20127;-78
2022/08/06 07:59:39;;;;;;;7.60;2.75;;;24.00;56.80;;;;;;5034822;28;20029;-77
2022/08/06 08:02:04;;;;;;;5.13;1.50;;;24.00;56.70;;;;;;5031904;28;20014;-78
2022/08/06 08:07:14;;;;;;;4.57;1.80;;;24.10;56.90;;;;;;5051706;28;20032;-79
2022/08/06 08:09:41;;;;;;;10.43;1.75;;;24.10;55.80;;;;;;5042519;28;20033;-75
2022/08/06 08:12:07;;;;;;;8.88;1.73;;;24.10;56.20;;;;;;5031732;28;20025;-75
2022/08/06 08:14:33;;;;;;;7.43;1.58;;;24.10;55.80;;;;;;5031452;28;20396;-75
2022/08/06 08:16:58;;;;;;;5.50;1.38;;;24.10;55.80;;;;;;5031445;28;20064;-74
2022/08/06 08:19:33;;;;;;;5.78;1.73;;;24.10;55.30;;;;;;5031805;28;20021;-75
2022/08/06 08:22:05;;;;;;;3.95;1.20;;;24.10;55.90;;;;;;5031335;28;20021;-75
2022/08/06 08:24:32;;;;;;;5.28;1.80;;;24.20;55.50;;;;;;5020129;28;20022;-75
2022/08/06 08:26:58;;;;;;;8.93;2.28;;;24.20;55.30;;;;;;5018999;28;20085;-77
2022/08/06 08:29:24;;;;;;;4.85;1.50;;;24.30;55.30;;;;;;5068644;28;20053;-78
2022/08/06 08:31:49;;;;;;;4.80;1.80;;;24.20;55.00;;;;;;5068751;28;20029;-77
2022/08/06 08:34:15;;;;;;;3.78;1.45;;;24.20;56.10;;;;;;5068608;28;20025;-77
2022/08/06 08:36:41;;;;;;;6.03;1.65;;;24.30;55.40;;;;;;5068896;28;20038;-76
2022/08/06 08:39:07;;;;;;;3.70;1.10;;;24.30;54.80;;;;;;5048755;28;20026;-76
2022/08/06 08:41:47;;;;;;;5.20;1.40;;;24.30;56.10;;;;;;5036042;28;20017;-76
2022/08/06 08:44:12;;;;;;;4.20;1.40;;;24.40;54.50;;;;;;5015833;28;20083;-76
2022/08/06 08:46:40;;;;;;;4.82;1.30;;;24.40;55.40;;;;;;5065101;28;20026;-75
2022/08/06 08:49:06;;;;;;;3.80;1.33;;;24.30;56.20;;;;;;5065499;28;20120;-75
2022/08/06 08:51:37;;;;;;;5.63;1.15;;;24.30;55.30;;;;;;5065072;28;20088;-75
2022/08/06 08:54:05;;;;;;;1.70;1.23;;;24.20;55.10;;;;;;5033408;28;20083;-75
2022/08/06 08:56:31;;;;;;;5.45;1.30;;;24.10;55.50;;;;;;5039658;28;20139;-75
2022/08/06 08:58:57;;;;;;;2.40;1.05;;;24.10;55.20;;;;;;5068379;28;20051;-75
2022/08/06 09:01:23;;;;;;;1.92;0.93;;;24.10;55.00;;;;;;5067553;28;20407;-75
2022/08/06 09:03:49;;;;;;;5.65;1.48;;;24.00;54.90;;;;;;5042317;28;20053;-75
2022/08/06 09:06:14;;;;;;;4.78;1.42;;;24.00;55.20;;;;;;5032770;28;20101;-75
2022/08/06 09:08:40;;;;;;;2.47;0.98;;;24.00;55.00;;;;;;5048668;28;20396;-77
2022/08/06 09:11:06;;;;;;;2.15;1.10;;;24.00;55.30;;;;;;5064170;28;20013;-74
2022/08/06 09:13:31;;;;;;;7.90;1.80;;;24.00;55.40;;;;;;5059996;28;20323;-74
2022/08/06 09:15:57;;;;;;;10.70;2.83;;;24.00;55.40;;;;;;5021161;28;20026;-74
2022/08/06 09:18:24;;;;;;;11.27;2.33;;;24.00;55.40;;;;;;5029352;28;20029;-74
2022/08/06 09:20:50;;;;;;;15.75;3.55;;;24.00;55.60;;;;;;5033099;28;20503;-74
2022/08/06 09:23:16;;;;;;;16.50;3.25;;;23.90;55.70;;;;;;5013951;28;20022;-74
2022/08/06 09:25:51;;;;;;;12.73;2.85;;;24.00;55.90;;;;;;5014968;28;20396;-74
2022/08/06 09:28:37;;;;;;;8.80;2.72;;;23.90;56.00;;;;;;5013884;28;20488;-74
2022/08/06 09:31:06;;;;;;;14.30;2.75;;;23.90;56.20;;;;;;5028025;28;20025;-74
2022/08/06 09:33:36;;;;;;;11.68;3.20;;;23.90;56.00;;;;;;5035138;28;20057;-74
2022/08/06 09:36:04;;;;;;;10.43;2.17;;;23.90;55.50;;;;;;5033696;28;20100;-74
2022/08/06 09:38:30;;;;;;;9.23;2.33;;;23.90;55.60;;;;;;5033592;28;20096;-74
2022/08/06 09:41:06;;;;;;;10.45;2.55;;;23.80;55.40;;;;;;5033318;28;20559;-74
2022/08/06 09:43:32;;;;;;;8.45;2.53;;;23.80;55.00;;;;;;5033578;28;20435;-74
2022/08/06 09:45:58;;;;;;;10.82;2.42;;;23.80;55.00;;;;;;5033611;28;20553;-74
2022/08/06 09:48:23;;;;;;;14.23;2.80;;;23.80;55.20;;;;;;5034582;28;20040;-74
2022/08/06 09:50:49;;;;;;;9.05;2.20;;;23.80;55.90;;;;;;5033396;28;20068;-74
2022/08/06 09:53:15;;;;;;;7.72;2.45;;;23.80;55.40;;;;;;5033369;28;20030;-74
2022/08/06 09:55:41;;;;;;;4.65;1.88;;;23.80;55.30;;;;;;5034375;28;20026;-74
2022/08/06 09:58:07;;;;;;;8.00;2.22;;;23.80;55.40;;;;;;5034335;28;20040;-74
2022/08/06 10:00:34;;;;;;;6.88;2.08;;;23.80;55.70;;;;;;5033278;28;20476;-74
2022/08/06 10:03:01;;;;;;;5.03;1.88;;;23.80;55.50;;;;;;5033322;28;20025;-74
2022/08/06 10:05:28;;;;;;;4.45;1.92;;;23.80;55.30;;;;;;5016825;28;20014;-75
2022/08/06 10:08:17;;;;;;;7.07;2.13;;;23.80;55.50;;;;;;5034338;28;20029;-75
2022/08/06 10:10:47;;;;;;;6.22;1.88;;;23.80;55.50;;;;;;5034173;28;20036;-75
2022/08/06 10:13:26;;;;;;;5.60;1.83;;;23.80;55.30;;;;;;5034019;28;20028;-74
2022/08/06 10:15:53;;;;;;;4.03;1.67;;;23.80;55.20;;;;;;5032907;28;20048;-74
2022/08/06 10:18:33;;;;;;;6.80;1.80;;;23.70;55.10;;;;;;5032630;28;20104;-74
2022/08/06 10:21:24;;;;;;;3.42;1.42;;;23.70;55.20;;;;;;5029245;28;20516;-74
2022/08/06 10:23:51;;;;;;;5.70;1.73;;;23.70;55.00;;;;;;5013031;28;20033;-75
2022/08/06 10:26:19;;;;;;;8.07;1.60;;;23.70;54.90;;;;;;5012794;28;20403;-74
2022/08/06 10:28:46;;;;;;;3.22;1.15;;;23.70;55.30;;;;;;5012769;28;20045;-74
2022/08/06 10:31:12;;;;;;;5.60;1.45;;;23.70;56.00;;;;;;5012912;28;20495;-74
2022/08/06 10:33:51;;;;;;;3.65;1.30;;;23.80;56.70;;;;;;5014281;28;20044;-75
2022/08/06 10:36:20;;;;;;;5.10;1.48;;;23.80;56.10;;;;;;5012799;28;20022;-75
2022/08/06 10:38:49;;;;;;;3.92;1.40;;;23.80;56.30;;;;;;5012709;28;20026;-74
2022/08/06 10:41:14;;;;;;;4.45;1.20;;;23.80;55.30;;;;;;5012528;28;20029;-74
2022/08/06 10:43:40;;;;;;;1.83;1.20;;;23.70;55.50;;;;;;5013822;28;20022;-74
2022/08/06 10:46:08;;;;;;;2.75;0.90;;;23.70;54.70;;;;;;5013415;28;20030;-75
2022/08/06 10:48:35;;;;;;;5.15;1.20;;;23.80;55.50;;;;;;5012667;28;20026;-75
2022/08/06 10:51:01;;;;;;;6.70;1.10;;;23.70;55.60;;;;;;5012482;28;20018;-74
2022/08/06 10:53:28;;;;;;;3.45;1.00;;;23.70;56.40;;;;;;5012390;28;20045;-75
2022/08/06 10:55:53;;;;;;;1.88;1.00;;;23.70;55.20;;;;;;5012361;28;20076;-75
2022/08/06 10:58:19;;;;;;;3.83;0.98;;;23.70;56.70;;;;;;5012320;28;20026;-75
2022/08/06 11:00:45;;;;;;;1.80;0.90;;;23.70;55.90;;;;;;5012529;28;20022;-74
2022/08/06 11:03:17;;;;;;;4.18;1.15;;;23.70;55.40;;;;;;5012382;28;20037;-74
2022/08/06 11:05:43;;;;;;;;;;;23.70;55.60;;;;;;5012838;28;20033;-74
2022/08/06 11:08:31;;;;;;;3.95;1.17;;;23.70;55.80;;;;;;5045204;28;19905;-75
2022/08/06 11:11:24;;;;;;;3.83;0.70;;;23.70;55.30;;;;;;5013482;28;20439;-75
2022/08/06 11:14:02;;;;;;;3.35;0.88;;;23.70;54.70;;;;;;5024176;28;20129;-75
2022/08/06 11:16:29;;;;;;;1.27;0.93;;;23.70;55.30;;;;;;5031797;28;20100;-74
2022/08/06 11:19:08;;;;;;;3.70;0.90;;;23.70;54.30;;;;;;5032017;28;20021;-75
2022/08/06 11:21:47;;;;;;;2.90;0.90;;;23.80;54.70;;;;;;5024376;28;20022;-74
2022/08/06 11:24:14;;;;;;;1.77;0.82;;;23.70;55.10;;;;;;5011894;28;20060;-75
2022/08/06 11:26:41;;;;;;;2.40;0.80;;;23.70;54.40;;;;;;5011904;28;20021;-75
2022/08/06 11:29:07;;;;;;;5.22;1.00;;;23.70;54.10;;;;;;5011629;28;20058;-75
2022/08/06 11:31:38;;;;;;;1.65;0.82;;;23.70;55.70;;;;;;5013049;28;20053;-75
2022/08/06 11:34:06;;;;;;;2.03;0.80;;;23.80;56.50;;;;;;5012036;28;20029;-74
2022/08/06 11:36:56;;;;;;;2.33;0.70;;;23.70;55.70;;;;;;5012610;28;20105;-75
2022/08/06 11:39:23;;;;;;;1.27;0.82;;;23.70;56.20;;;;;;5011880;28;20033;-75
2022/08/06 11:41:54;;;;;;;1.75;0.70;;;23.70;55.20;;;;;;5011849;28;20046;-74
2022/08/06 11:44:27;;;;;;;2.15;0.82;;;23.70;53.80;;;;;;5011437;28;20022;-74
2022/08/06 11:47:16;;;;;;;2.30;0.90;;;23.70;53.20;;;;;;5011956;28;20388;-74
2022/08/06 11:49:44;;;;;;;2.47;0.90;;;23.70;56.30;;;;;;5011591;28;20030;-74
2022/08/06 11:52:09;;;;;;;2.58;0.70;;;23.80;55.80;;;;;;5011402;28;20025;-75
2022/08/06 11:54:56;;;;;;;1.77;0.70;;;23.80;56.00;;;;;;5012868;28;20036;-75
2022/08/06 11:57:22;;;;;;;1.48;0.60;;;23.80;56.30;;;;;;5011641;28;20057;-75
2022/08/06 12:00:11;;;;;;;1.05;0.60;;;23.80;56.30;;;;;;5012560;28;20054;-74
2022/08/06 12:02:43;;;;;;;1.48;0.60;;;23.80;56.20;;;;;;5012659;28;20091;-74
2022/08/06 12:05:15;;;;;;;2.17;0.60;;;23.80;55.80;;;;;;5012400;28;20022;-74
2022/08/06 12:07:45;;;;;;;1.73;0.57;;;23.80;55.50;;;;;;5012610;28;20038;-74
2022/08/06 12:10:13;;;;;;;1.85;0.77;;;23.80;57.10;;;;;;5011322;28;20045;-74
2022/08/06 12:12:48;;;;;;;1.30;0.50;;;23.80;56.50;;;;;;5013786;28;20033;-74
2022/08/06 12:15:16;;;;;;;2.08;0.60;;;23.80;55.30;;;;;;5032137;28;20503;-75
2022/08/06 12:17:57;;;;;;;1.10;0.73;;;23.70;53.90;;;;;;5032284;28;20018;-75
2022/08/06 12:20:49;;;;;;;0.80;0.30;;;23.80;54.30;;;;;;5031820;28;20030;-75
2022/08/06 12:23:16;;;;;;;3.65;0.88;;;23.80;56.10;;;;;;5042213;28;20030;-74
2022/08/06 12:25:46;;;;;;;2.13;0.70;;;23.80;55.20;;;;;;5012470;28;20048;-75
2022/08/06 12:28:13;;;;;;;1.95;0.60;;;23.80;55.30;;;;;;5011174;28;20026;-75
2022/08/06 12:30:44;;;;;;;0.80;0.55;;;23.80;55.40;;;;;;5012263;28;20034;-75
2022/08/06 12:33:10;;;;;;;0.40;0.40;;;23.80;54.70;;;;;;5012258;28;20026;-75
2022/08/06 12:35:47;;;;;;;2.72;0.50;;;23.80;55.00;;;;;;5010983;28;20438;-75
2022/08/06 12:38:12;;;;;;;1.15;0.70;;;23.80;55.60;;;;;;5011075;28;20056;-74
2022/08/06 12:40:38;;;;;;;0.57;0.45;;;23.80;55.80;;;;;;5012150;28;20065;-74
2022/08/06 12:43:04;;;;;;;1.77;0.52;;;23.90;55.40;;;;;;5012289;28;20124;-74
2022/08/06 12:45:30;;;;;;;0.98;0.40;;;23.90;55.80;;;;;;5012135;28;20026;-74
2022/08/06 12:48:05;;;;;;;1.05;0.55;;;23.90;56.20;;;;;;5010932;28;20075;-74